Time;durP1;ratioP1;P1;durP2;ratioP2;P2;SDS_P1;SDS_P2;PMS_P1;PMS_P2;Temp;Humidity;BMP_temperature;BMP_pressure;BME280_temperature;BME280_humidity;BME280_pressure;Samples;Min_cycle;Max_cycle;Signal;HPM_P1;HPM_P2
2023/11/03 00:00:34;;;;;;;13.97;12.67;;;10.90;1.00;;;;;;5144305;27;20539;-74
2023/11/03 00:03:05;;;;;;;15.10;13.60;;;10.90;1.00;;;;;;5127520;27;20966;-74
2023/11/03 00:05:32;;;;;;;14.50;13.10;;;10.90;1.00;;;;;;5129507;27;20802;-74
2023/11/03 00:08:03;;;;;;;13.60;12.30;;;10.90;1.00;;;;;;5138175;27;20480;-75
2023/11/03 00:10:30;;;;;;;14.47;13.20;;;10.90;1.00;;;;;;5137581;27;20454;-73
2023/11/03 00:12:57;;;;;;;13.37;12.27;;;10.90;1.00;;;;;;5124415;27;20477;-74
2023/11/03 00:15:26;;;;;;;12.77;11.57;;;11.00;1.00;;;;;;5128770;27;20568;-74
2023/11/03 00:17:54;;;;;;;15.23;13.73;;;11.00;1.00;;;;;;5142691;27;20950;-73
2023/11/03 00:20:22;;;;;;;14.90;13.50;;;11.00;1.00;;;;;;5134636;27;20460;-76
2023/11/03 00:22:49;;;;;;;13.83;12.53;;;11.00;1.00;;;;;;5130190;27;20472;-75
2023/11/03 00:25:16;;;;;;;13.73;12.17;;;11.00;1.00;;;;;;5135507;27;20472;-74
2023/11/03 00:27:46;;;;;;;14.77;13.27;;;11.00;1.00;;;;;;5131064;27;20518;-74
2023/11/03 00:30:13;;;;;;;14.40;12.90;;;11.00;1.00;;;;;;5136880;27;20525;-74
2023/11/03 00:32:40;;;;;;;15.20;13.70;;;11.00;1.00;;;;;;5149931;27;20464;-74
2023/11/03 00:35:11;;;;;;;14.07;12.73;;;11.00;1.00;;;;;;5130392;27;20478;-73
2023/11/03 00:37:40;;;;;;;14.07;12.50;;;10.90;1.00;;;;;;5125216;27;20458;-74
2023/11/03 00:40:10;;;;;;;13.67;12.37;;;10.90;1.00;;;;;;5127253;27;20529;-74
2023/11/03 00:42:37;;;;;;;13.97;12.57;;;11.00;1.00;;;;;;5146171;27;21001;-72
2023/11/03 00:45:05;;;;;;;14.23;12.93;;;10.90;1.00;;;;;;5130879;27;20460;-73
2023/11/03 00:47:33;;;;;;;13.30;12.00;;;10.90;1.00;;;;;;5128711;27;20483;-74
2023/11/03 00:49:59;;;;;;;15.20;13.80;;;10.80;1.00;;;;;;5130062;27;20544;-73
2023/11/03 00:52:28;;;;;;;13.67;12.37;;;10.80;1.00;;;;;;5125737;27;20496;-73
2023/11/03 00:54:55;;;;;;;14.80;13.30;;;10.80;1.00;;;;;;5143144;27;20547;-74
2023/11/03 00:57:23;;;;;;;13.40;12.17;;;10.80;1.00;;;;;;5128303;27;20868;-73
2023/11/03 00:59:50;;;;;;;14.83;13.33;;;10.80;1.00;;;;;;5122345;27;21136;-72
2023/11/03 01:02:17;;;;;;;13.77;12.47;;;10.70;1.00;;;;;;5128868;27;20510;-72
2023/11/03 01:04:44;;;;;;;14.10;11.63;;;10.80;1.00;;;;;;5127630;27;21433;-71
2023/11/03 01:07:11;;;;;;;13.03;11.83;;;10.70;1.00;;;;;;5118916;27;20473;-71
2023/11/03 01:09:41;;;;;;;13.40;12.00;;;10.80;1.00;;;;;;5129949;27;20465;-69
2023/11/03 01:12:08;;;;;;;12.70;11.47;;;10.70;1.00;;;;;;5129014;27;21311;-70
2023/11/03 01:14:35;;;;;;;12.57;11.47;;;10.80;1.00;;;;;;5125692;27;20449;-71
2023/11/03 01:17:02;;;;;;;13.13;11.93;;;10.80;1.00;;;;;;5126331;27;20540;-72
2023/11/03 01:19:30;;;;;;;15.33;12.97;;;10.80;1.00;;;;;;5127902;27;20457;-72
2023/11/03 01:21:59;;;;;;;13.57;12.13;;;10.70;1.00;;;;;;5124858;27;21288;-72
2023/11/03 01:24:26;;;;;;;13.60;12.40;;;10.70;1.00;;;;;;5125799;27;20453;-70
2023/11/03 01:26:54;;;;;;;13.87;12.47;;;10.70;1.00;;;;;;5126343;27;20543;-74
2023/11/03 01:29:21;;;;;;;13.00;11.77;;;10.70;1.00;;;;;;5125327;27;21157;-71
2023/11/03 01:31:48;;;;;;;15.50;14.00;;;10.70;1.00;;;;;;5125572;27;20632;-76
2023/11/03 01:34:15;;;;;;;13.00;11.80;;;10.80;1.00;;;;;;5148170;27;20967;-72
2023/11/03 01:36:43;;;;;;;13.07;11.87;;;10.80;1.00;;;;;;5128657;27;20494;-74
2023/11/03 01:39:10;;;;;;;16.50;12.73;;;10.80;1.00;;;;;;5139795;27;20531;-72
2023/11/03 01:41:37;;;;;;;13.20;11.90;;;10.80;1.00;;;;;;5146119;27;20983;-72
2023/11/03 01:44:09;;;;;;;13.53;12.23;;;10.80;1.00;;;;;;5141996;27;20875;-71
2023/11/03 01:46:37;;;;;;;13.90;12.50;;;10.80;1.00;;;;;;5127110;27;20983;-71
2023/11/03 01:49:05;;;;;;;13.83;12.43;;;10.80;1.00;;;;;;5127168;27;20504;-70
2023/11/03 01:51:33;;;;;;;13.20;11.83;;;10.90;1.00;;;;;;5123193;27;20536;-75
2023/11/03 01:54:01;;;;;;;12.27;11.17;;;10.80;1.00;;;;;;5148219;27;20484;-71
2023/11/03 01:56:28;;;;;;;13.13;11.93;;;10.80;1.00;;;;;;5136337;27;20544;-72
2023/11/03 01:58:56;;;;;;;12.83;11.63;;;10.80;1.00;;;;;;5129345;27;20976;-71
2023/11/03 02:01:24;;;;;;;13.10;11.83;;;10.90;1.00;;;;;;5130000;27;20962;-70
2023/11/03 02:03:51;;;;;;;13.80;12.50;;;10.90;1.00;;;;;;5128492;27;20463;-70
2023/11/03 02:06:18;;;;;;;13.67;12.07;;;10.90;1.00;;;;;;5127897;27;20522;-70
2023/11/03 02:08:45;;;;;;;12.97;11.77;;;10.90;1.00;;;;;;5125725;27;20457;-70
2023/11/03 02:11:12;;;;;;;13.53;11.97;;;10.90;1.00;;;;;;5124303;27;20462;-71
2023/11/03 02:13:39;;;;;;;13.93;12.60;;;10.80;1.00;;;;;;5132582;27;20982;-70
2023/11/03 02:16:06;;;;;;;13.70;12.40;;;10.80;1.00;;;;;;5140476;27;20460;-72
2023/11/03 02:18:35;;;;;;;13.63;12.43;;;10.70;1.00;;;;;;5138577;27;20873;-74
2023/11/03 02:21:01;;;;;;;14.60;13.20;;;10.70;1.00;;;;;;5132281;27;20472;-70
2023/11/03 02:23:33;;;;;;;13.67;12.37;;;10.60;1.00;;;;;;5131816;27;20540;-71
2023/11/03 02:26:00;;;;;;;13.13;11.93;;;10.60;1.00;;;;;;5131450;27;20548;-73
2023/11/03 02:28:27;;;;;;;12.80;11.50;;;10.60;1.00;;;;;;5136218;27;20507;-70
2023/11/03 02:30:54;;;;;;;12.73;11.50;;;10.60;1.00;;;;;;5123906;27;20564;-70
2023/11/03 02:33:21;;;;;;;13.80;12.40;;;10.60;1.00;;;;;;5137177;27;20444;-70
2023/11/03 02:35:48;;;;;;;13.60;12.30;;;10.60;1.00;;;;;;5144106;27;20495;-72
2023/11/03 02:38:16;;;;;;;12.20;11.10;;;10.60;1.00;;;;;;5130597;27;20449;-70
2023/11/03 02:40:46;;;;;;;12.80;11.50;;;10.60;1.00;;;;;;5130139;27;20480;-73
2023/11/03 02:43:13;;;;;;;12.73;11.53;;;10.70;1.00;;;;;;5131265;27;20549;-72
2023/11/03 02:45:40;;;;;;;13.13;11.93;;;10.70;1.00;;;;;;5137570;27;20483;-71
2023/11/03 02:48:08;;;;;;;14.07;12.87;;;10.60;1.00;;;;;;5131438;27;20465;-71
2023/11/03 02:50:35;;;;;;;14.87;13.23;;;10.70;1.00;;;;;;5125535;27;20460;-72
2023/11/03 02:53:02;;;;;;;14.47;13.07;;;10.50;1.00;;;;;;5127673;27;20449;-70
2023/11/03 02:55:29;;;;;;;14.30;12.70;;;10.40;1.00;;;;;;5143627;27;20533;-70
2023/11/03 02:57:57;;;;;;;13.07;11.77;;;10.40;1.00;;;;;;5131344;27;20556;-72
2023/11/03 03:00:25;;;;;;;14.23;12.93;;;10.40;1.00;;;;;;5132899;27;20912;-72
2023/11/03 03:02:52;;;;;;;14.03;12.60;;;10.40;1.00;;;;;;5144589;27;20509;-71
2023/11/03 03:05:19;;;;;;;14.00;12.60;;;10.30;1.00;;;;;;5124436;27;20496;-72
2023/11/03 03:07:47;;;;;;;14.83;13.43;;;10.30;1.00;;;;;;5127427;27;20453;-72
2023/11/03 03:10:14;;;;;;;13.60;12.00;;;10.30;1.00;;;;;;5124676;27;21481;-72
2023/11/03 03:12:41;;;;;;;16.07;12.57;;;10.20;1.00;;;;;;5128703;27;20463;-72
2023/11/03 03:15:10;;;;;;;13.20;12.00;;;10.20;1.00;;;;;;5134913;27;20484;-71
2023/11/03 03:17:37;;;;;;;13.53;12.23;;;10.20;1.00;;;;;;5129081;27;20453;-72
2023/11/03 03:20:05;;;;;;;14.30;13.00;;;10.20;1.00;;;;;;5130932;27;21383;-71
2023/11/03 03:22:32;;;;;;;13.90;12.43;;;10.20;1.00;;;;;;5142413;27;20851;-79
2023/11/03 03:24:59;;;;;;;13.83;12.47;;;10.10;1.00;;;;;;5151795;27;20464;-79
2023/11/03 03:27:26;;;;;;;12.90;11.63;;;10.20;1.00;;;;;;5135793;27;20525;-79
2023/11/03 03:29:53;;;;;;;13.47;12.13;;;10.20;1.00;;;;;;5131260;27;20473;-79
2023/11/03 03:32:21;;;;;;;13.73;11.53;;;10.10;1.00;;;;;;5132559;27;20464;-79
2023/11/03 03:34:48;;;;;;;12.40;11.20;;;10.10;1.00;;;;;;5130298;27;20464;-79
2023/11/03 03:37:15;;;;;;;12.40;11.20;;;10.10;1.00;;;;;;5133809;27;20560;-78
2023/11/03 03:39:42;;;;;;;13.43;11.93;;;10.10;1.00;;;;;;5128547;27;20493;-79
2023/11/03 03:42:09;;;;;;;12.23;10.80;;;10.10;1.00;;;;;;5149402;27;20479;-77
2023/11/03 03:44:40;;;;;;;13.40;12.17;;;10.10;1.00;;;;;;5152629;27;20981;-78
2023/11/03 03:47:07;;;;;;;13.07;11.70;;;10.10;1.00;;;;;;5148201;27;20470;-81
2023/11/03 03:49:36;;;;;;;11.63;10.43;;;10.10;1.00;;;;;;5150501;27;20456;-79
2023/11/03 03:52:03;;;;;;;12.23;11.03;;;10.00;1.00;;;;;;5131321;27;21302;-74
2023/11/03 03:54:30;;;;;;;11.80;9.87;;;10.00;1.00;;;;;;5136081;27;20568;-76
2023/11/03 03:56:57;;;;;;;11.60;10.40;;;10.00;1.00;;;;;;5126060;27;20548;-79
2023/11/03 03:59:24;;;;;;;10.80;9.80;;;10.00;1.00;;;;;;5130686;27;20439;-78
2023/11/03 04:01:51;;;;;;;11.60;10.40;;;10.00;1.00;;;;;;5128348;27;20504;-81
2023/11/03 04:04:18;;;;;;;12.20;11.10;;;10.00;1.00;;;;;;5125424;27;20453;-77
2023/11/03 04:06:46;;;;;;;12.50;10.23;;;9.90;1.00;;;;;;5126774;27;21301;-81
2023/11/03 04:09:13;;;;;;;10.97;9.87;;;9.90;1.00;;;;;;5127560;27;20514;-80
2023/11/03 04:11:40;;;;;;;11.00;9.90;;;9.90;1.00;;;;;;5128893;27;20464;-79
2023/11/03 04:14:07;;;;;;;10.87;9.90;;;9.90;1.00;;;;;;5129275;27;20499;-79
2023/11/03 04:16:34;;;;;;;9.80;8.90;;;9.80;1.00;;;;;;5149347;27;20624;-79
2023/11/03 04:19:02;;;;;;;10.30;9.40;;;9.80;1.00;;;;;;5140642;27;20621;-78
2023/11/03 04:21:29;;;;;;;10.80;9.70;;;9.80;1.00;;;;;;5149643;27;20459;-80
2023/11/03 04:23:57;;;;;;;9.67;8.77;;;9.80;1.00;;;;;;5138676;27;20434;-80
2023/11/03 04:26:25;;;;;;;11.40;10.20;;;9.80;1.00;;;;;;5148853;27;20495;-78
2023/11/03 04:28:51;;;;;;;10.43;9.10;;;9.80;1.00;;;;;;5152020;27;20529;-80
2023/11/03 04:31:18;;;;;;;9.50;8.13;;;9.80;1.00;;;;;;5153162;27;20608;-79
2023/11/03 04:33:45;;;;;;;8.47;7.67;;;9.70;1.00;;;;;;5152830;27;20897;-73
2023/11/03 04:36:13;;;;;;;10.23;7.90;;;9.70;1.00;;;;;;5130436;27;20455;-72
2023/11/03 04:38:40;;;;;;;8.20;7.40;;;9.70;1.00;;;;;;5140766;27;20527;-72
2023/11/03 04:41:09;;;;;;;8.80;7.80;;;9.70;1.00;;;;;;5146974;27;20559;-73
2023/11/03 04:43:40;;;;;;;9.23;7.57;;;9.60;1.00;;;;;;5146469;27;20980;-72
2023/11/03 04:46:08;;;;;;;8.13;6.87;;;9.60;1.00;;;;;;5147973;27;20460;-72
2023/11/03 04:48:35;;;;;;;8.50;7.17;;;9.70;1.00;;;;;;5150000;27;20916;-72
2023/11/03 04:51:03;;;;;;;8.57;7.13;;;9.60;1.00;;;;;;5148605;27;20452;-73
2023/11/03 04:53:29;;;;;;;7.33;6.63;;;9.60;1.00;;;;;;5149364;27;21414;-74
2023/11/03 04:55:57;;;;;;;8.20;7.47;;;9.60;1.00;;;;;;5144839;27;20462;-72
2023/11/03 04:58:25;;;;;;;7.80;7.00;;;9.60;1.00;;;;;;5152857;27;20474;-74
2023/11/03 05:00:52;;;;;;;6.43;5.80;;;9.60;1.00;;;;;;5145570;27;20464;-73
2023/11/03 05:03:19;;;;;;;7.80;6.77;;;9.60;1.00;;;;;;5147371;27;21310;-74
2023/11/03 05:05:47;;;;;;;7.53;6.80;;;9.60;1.00;;;;;;5134161;27;20556;-75
2023/11/03 05:08:14;;;;;;;7.30;6.60;;;9.60;1.00;;;;;;5140019;27;20468;-74
2023/11/03 05:10:41;;;;;;;6.30;5.50;;;9.60;1.00;;;;;;5132657;27;20473;-74
2023/11/03 05:13:09;;;;;;;9.57;6.20;;;9.60;1.00;;;;;;5146241;27;20531;-72
2023/11/03 05:15:39;;;;;;;7.20;6.57;;;9.60;1.00;;;;;;5142155;27;20514;-72
2023/11/03 05:18:06;;;;;;;6.07;5.30;;;9.60;1.00;;;;;;5139213;27;20538;-71
2023/11/03 05:20:33;;;;;;;5.90;5.33;;;9.50;1.00;;;;;;5119696;27;20940;-74
2023/11/03 05:23:00;;;;;;;6.20;5.70;;;9.50;1.00;;;;;;5128047;27;20472;-72
2023/11/03 05:25:28;;;;;;;7.63;6.37;;;9.50;1.00;;;;;;5131057;27;20835;-73
2023/11/03 05:27:55;;;;;;;5.87;4.93;;;9.50;1.00;;;;;;5127445;27;21293;-73
2023/11/03 05:30:23;;;;;;;12.17;7.80;;;9.50;1.00;;;;;;5140729;27;21352;-72
2023/11/03 05:32:51;;;;;;;7.13;5.67;;;9.40;1.00;;;;;;5152670;27;20447;-72
2023/11/03 05:35:18;;;;;;;6.30;5.23;;;9.50;1.00;;;;;;5146704;27;20993;-74
2023/11/03 05:37:46;;;;;;;5.50;5.00;;;9.50;1.00;;;;;;5129213;27;20666;-72
2023/11/03 05:40:14;;;;;;;6.30;4.93;;;9.50;1.00;;;;;;5151514;27;20444;-73
2023/11/03 05:42:42;;;;;;;5.90;5.23;;;9.50;1.00;;;;;;5151338;27;20922;-73
2023/11/03 05:45:09;;;;;;;7.53;6.00;;;9.40;1.00;;;;;;5152631;27;20451;-74
2023/11/03 05:47:36;;;;;;;5.50;5.00;;;9.40;1.00;;;;;;5133990;27;20517;-71
2023/11/03 05:50:06;;;;;;;7.33;5.53;;;9.40;1.00;;;;;;5151820;27;20479;-74
2023/11/03 05:52:33;;;;;;;6.90;4.93;;;9.40;1.00;;;;;;5152278;27;20955;-74
2023/11/03 05:55:00;;;;;;;5.90;5.30;;;9.50;1.00;;;;;;5143315;27;20543;-73
2023/11/03 05:57:27;;;;;;;5.60;5.00;;;9.50;1.00;;;;;;5135880;27;20520;-73
2023/11/03 05:59:54;;;;;;;6.63;5.13;;;9.50;1.00;;;;;;5129100;27;20477;-72
2023/11/03 06:02:21;;;;;;;5.10;4.70;;;9.50;1.00;;;;;;5132570;27;21335;-73
2023/11/03 06:04:48;;;;;;;5.33;4.83;;;9.50;1.00;;;;;;5133572;27;20874;-73
2023/11/03 06:07:17;;;;;;;5.60;5.10;;;9.50;1.00;;;;;;5137326;27;20920;-73
2023/11/03 06:09:44;;;;;;;7.13;4.53;;;9.50;1.00;;;;;;5130477;27;20517;-73
2023/11/03 06:12:11;;;;;;;5.17;4.67;;;9.40;1.00;;;;;;5133351;27;20463;-73
2023/11/03 06:14:38;;;;;;;5.10;4.20;;;9.30;1.00;;;;;;5132503;27;20460;-73
2023/11/03 06:17:05;;;;;;;5.47;4.37;;;9.40;1.00;;;;;;5128537;27;20482;-74
2023/11/03 06:19:32;;;;;;;8.43;4.87;;;9.40;1.00;;;;;;5126387;27;20497;-74
2023/11/03 06:21:59;;;;;;;5.57;4.90;;;9.40;1.00;;;;;;5130954;27;20464;-75
2023/11/03 06:24:27;;;;;;;5.53;4.40;;;9.40;1.00;;;;;;5131728;27;20445;-74
2023/11/03 06:26:59;;;;;;;4.63;4.13;;;9.40;1.00;;;;;;5127306;27;20545;-75
2023/11/03 06:29:26;;;;;;;5.50;5.00;;;9.40;1.00;;;;;;5127579;27;20461;-75
2023/11/03 06:31:56;;;;;;;4.90;4.40;;;9.40;1.00;;;;;;5144319;27;21040;-75
2023/11/03 06:34:23;;;;;;;5.00;4.10;;;9.50;1.00;;;;;;5129259;27;21060;-75
2023/11/03 06:36:50;;;;;;;4.67;4.20;;;9.50;1.00;;;;;;5144821;27;20558;-76
2023/11/03 06:39:18;;;;;;;7.00;4.60;;;9.40;1.00;;;;;;5115923;27;20544;-74
2023/11/03 06:41:46;;;;;;;3.97;3.60;;;9.40;1.00;;;;;;5142592;27;21002;-74
2023/11/03 06:44:14;;;;;;;6.73;4.13;;;9.40;1.00;;;;;;5127820;27;20536;-73
2023/11/03 06:46:43;;;;;;;6.00;4.53;;;9.50;1.00;;;;;;5144551;27;21418;-71
2023/11/03 06:49:10;;;;;;;3.87;3.03;;;9.50;1.00;;;;;;5145732;27;21356;-72
2023/11/03 06:51:37;;;;;;;5.60;3.50;;;9.50;1.00;;;;;;5129100;27;20548;-72
2023/11/03 06:54:05;;;;;;;4.50;3.33;;;9.50;1.00;;;;;;5129940;27;20453;-79
2023/11/03 06:56:33;;;;;;;6.47;4.07;;;9.60;1.00;;;;;;5129682;27;20468;-79
2023/11/03 06:59:01;;;;;;;4.80;3.00;;;9.60;1.00;;;;;;5142504;27;20922;-79
2023/11/03 07:01:28;;;;;;;6.23;3.33;;;9.70;1.00;;;;;;5138645;27;20472;-73
2023/11/03 07:03:55;;;;;;;5.63;3.73;;;9.60;1.00;;;;;;5130728;27;20552;-77
2023/11/03 07:06:22;;;;;;;4.03;2.77;;;9.70;1.00;;;;;;5130342;27;20481;-77
2023/11/03 07:08:49;;;;;;;6.17;3.70;;;9.70;1.00;;;;;;5128360;27;20940;-79
2023/11/03 07:11:17;;;;;;;5.20;2.90;;;9.80;1.00;;;;;;5120840;27;21058;-77
2023/11/03 07:13:44;;;;;;;5.77;3.00;;;9.90;1.00;;;;;;5132577;27;20469;-77
2023/11/03 07:16:13;;;;;;;9.07;3.70;;;10.00;1.00;;;;;;5129149;27;20976;-74
2023/11/03 07:18:41;;;;;;;3.60;2.83;;;10.10;1.00;;;;;;5125240;27;20455;-76
2023/11/03 07:21:13;;;;;;;4.37;2.90;;;10.20;1.00;;;;;;5129319;27;20460;-80
2023/11/03 07:23:41;;;;;;;5.03;3.17;;;10.20;1.00;;;;;;5133136;27;20451;-79
2023/11/03 07:26:08;;;;;;;4.07;2.60;;;10.30;1.00;;;;;;5131072;27;21022;-76
2023/11/03 07:28:35;;;;;;;6.20;2.53;;;10.30;1.00;;;;;;5141837;27;20449;-78
2023/11/03 07:31:03;;;;;;;8.40;3.33;;;10.40;1.00;;;;;;5147225;27;20461;-78
2023/11/03 07:33:33;;;;;;;4.03;3.10;;;10.40;1.00;;;;;;5134516;27;20530;-77
2023/11/03 07:36:01;;;;;;;4.87;3.03;;;10.40;1.00;;;;;;5129110;27;20468;-75
2023/11/03 07:38:28;;;;;;;5.30;3.47;;;10.40;1.00;;;;;;5133737;27;20448;-78
2023/11/03 07:40:56;;;;;;;5.40;2.73;;;10.50;1.00;;;;;;5152162;27;20464;-80
2023/11/03 07:43:23;;;;;;;3.60;3.07;;;10.70;1.00;;;;;;5152650;27;21249;-79
2023/11/03 07:45:53;;;;;;;4.60;2.80;;;10.80;1.00;;;;;;5134539;27;20469;-78
2023/11/03 07:48:20;;;;;;;5.40;2.90;;;10.90;1.00;;;;;;5136626;27;20444;-80
2023/11/03 07:50:49;;;;;;;4.47;2.70;;;10.90;1.00;;;;;;5149740;27;20452;-78
2023/11/03 07:53:16;;;;;;;4.93;3.70;;;11.00;1.00;;;;;;5146070;27;20466;-73
2023/11/03 07:55:43;;;;;;;4.43;2.80;;;11.00;1.00;;;;;;5140846;27;20444;-77
2023/11/03 07:58:10;;;;;;;5.60;3.23;;;11.10;1.00;;;;;;5134187;27;20465;-77
2023/11/03 08:00:37;;;;;;;4.23;3.60;;;11.10;1.00;;;;;;5142228;27;20417;-76
2023/11/03 08:03:07;;;;;;;6.23;4.20;;;11.10;1.00;;;;;;5146177;27;20461;-72
2023/11/03 08:05:34;;;;;;;5.80;4.60;;;11.10;1.00;;;;;;5146287;27;20484;-71
2023/11/03 08:08:03;;;;;;;5.80;3.80;;;11.00;1.00;;;;;;5127522;27;20520;-71
2023/11/03 08:10:30;;;;;;;3.97;3.20;;;10.90;1.00;;;;;;5121469;27;21154;-73
2023/11/03 08:12:58;;;;;;;7.23;3.37;;;10.90;1.00;;;;;;5130663;27;20464;-72
2023/11/03 08:15:25;;;;;;;4.47;2.87;;;10.90;1.00;;;;;;5129290;27;20477;-71
2023/11/03 08:17:52;;;;;;;6.50;2.97;;;10.90;1.00;;;;;;5138133;27;20560;-70
2023/11/03 08:20:21;;;;;;;3.83;2.77;;;11.00;1.00;;;;;;5136539;27;20463;-71
2023/11/03 08:22:49;;;;;;;4.30;3.33;;;10.90;1.00;;;;;;5127086;27;20459;-71
2023/11/03 08:25:17;;;;;;;5.83;2.57;;;10.90;1.00;;;;;;5130599;27;20983;-71
2023/11/03 08:27:46;;;;;;;6.17;2.60;;;11.00;1.00;;;;;;5131345;27;21241;-70
2023/11/03 08:30:13;;;;;;;2.90;2.40;;;11.00;1.00;;;;;;5130262;27;20424;-71
2023/11/03 08:32:40;;;;;;;4.87;2.90;;;11.00;1.00;;;;;;5145360;27;20476;-71
2023/11/03 08:35:10;;;;;;;6.93;2.57;;;10.90;1.00;;;;;;5138035;27;20619;-81
2023/11/03 08:37:37;;;;;;;2.90;2.60;;;10.90;1.00;;;;;;5125325;27;20999;-73
2023/11/03 08:40:05;;;;;;;3.90;2.53;;;11.00;1.00;;;;;;5123960;27;20536;-71
2023/11/03 08:42:33;;;;;;;3.93;3.30;;;11.00;1.00;;;;;;5128372;27;20459;-70
2023/11/03 08:45:00;;;;;;;4.53;3.00;;;11.10;1.00;;;;;;5124857;27;20437;-71
2023/11/03 08:47:28;;;;;;;5.40;3.17;;;11.30;1.00;;;;;;5126901;27;20584;-71
2023/11/03 08:49:56;;;;;;;6.20;3.20;;;11.40;1.00;;;;;;5134572;27;20558;-73
2023/11/03 08:52:23;;;;;;;7.30;3.53;;;11.50;1.00;;;;;;5143852;27;20449;-75
2023/11/03 08:54:50;;;;;;;4.73;3.50;;;11.70;1.00;;;;;;5146958;27;20445;-72
2023/11/03 08:57:18;;;;;;;7.10;3.30;;;11.80;1.00;;;;;;5132866;27;20485;-72
2023/11/03 08:59:47;;;;;;;3.67;2.40;;;11.90;1.00;;;;;;5135730;27;20838;-72
2023/11/03 09:02:14;;;;;;;6.23;3.60;;;11.90;1.00;;;;;;5137647;27;20456;-72
2023/11/03 09:04:41;;;;;;;7.57;2.87;;;12.10;1.00;;;;;;5143915;27;20542;-71
2023/11/03 09:07:09;;;;;;;4.00;2.50;;;12.10;1.00;;;;;;5137389;27;20449;-72
2023/11/03 09:09:37;;;;;;;4.47;2.97;;;12.20;1.00;;;;;;5136112;27;20455;-70
2023/11/03 09:12:04;;;;;;;2.80;1.77;;;12.20;1.00;;;;;;5141939;27;20461;-75
2023/11/03 09:14:31;;;;;;;3.00;2.40;;;12.20;1.00;;;;;;5131209;27;20549;-71
2023/11/03 09:17:00;;;;;;;5.50;2.50;;;12.20;1.00;;;;;;5131430;27;20837;-74
2023/11/03 09:19:28;;;;;;;4.83;2.37;;;12.30;1.00;;;;;;5141961;27;20599;-72
2023/11/03 09:21:54;;;;;;;10.33;2.93;;;12.30;1.00;;;;;;5131725;27;20462;-72
2023/11/03 09:24:21;;;;;;;2.43;2.23;;;12.40;1.00;;;;;;5154457;27;20490;-71
2023/11/03 09:26:48;;;;;;;9.00;3.63;;;12.40;1.00;;;;;;5132587;27;20952;-72
2023/11/03 09:29:16;;;;;;;4.43;2.70;;;12.50;1.00;;;;;;5128723;27;20547;-71
2023/11/03 09:31:43;;;;;;;5.70;2.30;;;12.60;1.00;;;;;;5128339;27;20477;-73
2023/11/03 09:34:13;;;;;;;5.27;2.50;;;12.70;1.00;;;;;;5147842;27;20500;-71
2023/11/03 09:36:40;;;;;;;5.00;2.50;;;12.80;1.00;;;;;;5123863;27;20451;-71
2023/11/03 09:39:09;;;;;;;6.50;3.07;;;12.80;1.00;;;;;;5127574;27;20520;-71
2023/11/03 09:41:41;;;;;;;3.20;2.70;;;12.80;1.00;;;;;;5136919;27;20538;-73
2023/11/03 09:44:10;;;;;;;6.57;2.40;;;12.80;1.00;;;;;;5131202;27;20478;-70
2023/11/03 09:46:38;;;;;;;3.60;2.70;;;12.80;1.00;;;;;;5129896;27;20460;-70
2023/11/03 09:49:06;;;;;;;2.40;1.53;;;12.80;1.00;;;;;;5137869;27;20809;-70
2023/11/03 09:51:39;;;;;;;5.53;2.43;;;12.70;1.00;;;;;;5136499;27;20548;-72
2023/11/03 09:54:07;;;;;;;3.53;2.17;;;12.60;1.00;;;;;;5149193;27;20561;-72
2023/11/03 09:56:36;;;;;;;3.00;1.73;;;12.80;1.00;;;;;;5148606;27;21209;-70
2023/11/03 09:59:03;;;;;;;6.43;2.20;;;12.90;1.00;;;;;;5148897;27;20532;-70
2023/11/03 10:01:32;;;;;;;3.57;1.73;;;12.80;1.00;;;;;;5136900;27;20455;-70
2023/11/03 10:03:59;;;;;;;4.57;1.93;;;12.80;1.00;;;;;;5133587;27;20501;-70
2023/11/03 10:06:26;;;;;;;3.90;2.10;;;12.90;1.00;;;;;;5132802;27;20961;-69
2023/11/03 10:08:58;;;;;;;4.27;2.40;;;12.80;1.00;;;;;;5144427;27;20505;-70
2023/11/03 10:11:26;;;;;;;7.77;2.80;;;12.80;1.00;;;;;;5142407;27;20482;-76
2023/11/03 10:13:53;;;;;;;5.00;2.70;;;12.80;1.00;;;;;;5150491;27;20964;-68
2023/11/03 10:16:20;;;;;;;4.90;2.10;;;12.90;1.00;;;;;;5129907;27;20538;-68
2023/11/03 10:18:47;;;;;;;3.43;2.23;;;12.80;1.00;;;;;;5127593;27;20503;-71
2023/11/03 10:21:14;;;;;;;3.80;2.10;;;12.90;1.00;;;;;;5144193;27;20512;-71
2023/11/03 10:23:42;;;;;;;6.60;2.03;;;12.80;1.00;;;;;;5152815;27;20501;-82
2023/11/03 10:26:10;;;;;;;5.03;1.80;;;12.80;1.00;;;;;;5144175;27;20544;-78
2023/11/03 10:28:37;;;;;;;5.53;1.90;;;12.80;1.00;;;;;;5135582;27;20512;-77
2023/11/03 10:31:06;;;;;;;4.93;4.50;;;12.80;1.00;;;;;;5125827;27;20504;-76
2023/11/03 10:33:33;;;;;;;5.50;2.97;;;12.70;1.00;;;;;;5130376;27;20486;-77
2023/11/03 10:36:02;;;;;;;4.90;2.50;;;12.70;1.00;;;;;;5128692;27;20463;-78
2023/11/03 10:38:28;;;;;;;5.33;2.20;;;12.60;1.00;;;;;;5138790;27;20443;-78
2023/11/03 10:40:58;;;;;;;5.67;2.33;;;12.70;1.00;;;;;;5143218;27;20490;-79
2023/11/03 10:43:27;;;;;;;7.90;3.13;;;12.80;1.00;;;;;;5133184;27;20553;-77
2023/11/03 10:46:01;;;;;;;6.90;2.60;;;12.90;1.00;;;;;;5127900;27;20489;-78
2023/11/03 10:48:37;;;;;;;4.80;2.37;;;13.00;1.00;;;;;;5144716;27;21613;-78
2023/11/03 10:51:08;;;;;;;3.93;2.30;;;13.10;1.00;;;;;;5141167;27;21102;-79
2023/11/03 10:53:45;;;;;;;4.90;3.00;;;13.10;1.00;;;;;;5131497;27;20466;-78
2023/11/03 10:56:13;;;;;;;7.50;3.23;;;12.90;1.00;;;;;;5129338;27;20406;-79
2023/11/03 10:58:43;;;;;;;8.73;3.57;;;12.90;1.00;;;;;;5139914;27;20458;-82
2023/11/03 11:01:18;;;;;;;4.80;2.60;;;12.90;1.00;;;;;;5151720;27;20530;-79
2023/11/03 11:03:53;;;;;;;3.63;1.90;;;12.90;1.00;;;;;;5152638;27;20993;-78
2023/11/03 11:06:23;;;;;;;5.50;1.70;;;12.90;1.00;;;;;;5150290;27;21053;-78
2023/11/03 11:08:54;;;;;;;5.33;2.40;;;12.90;1.00;;;;;;5154229;27;20548;-81
2023/11/03 11:11:21;;;;;;;3.50;2.20;;;12.90;1.00;;;;;;5156563;27;21255;-78
2023/11/03 11:13:50;;;;;;;6.80;2.50;;;12.90;1.00;;;;;;5154784;27;20862;-79
2023/11/03 11:16:19;;;;;;;6.27;2.43;;;12.90;1.00;;;;;;5132366;27;20472;-79
2023/11/03 11:18:51;;;;;;;3.83;2.40;;;12.90;1.00;;;;;;5130450;27;20452;-75
2023/11/03 11:21:28;;;;;;;7.10;2.17;;;13.00;1.00;;;;;;5145363;27;20470;-74
2023/11/03 11:23:56;;;;;;;3.93;1.80;;;13.10;1.00;;;;;;5149923;27;20972;-78
2023/11/03 11:26:26;;;;;;;4.10;2.50;;;13.10;1.00;;;;;;5150946;27;20453;-78
2023/11/03 11:28:55;;;;;;;4.00;2.27;;;13.00;1.00;;;;;;5149242;27;20470;-78
2023/11/03 11:31:38;;;;;;;5.20;2.30;;;13.00;1.00;;;;;;5153899;27;20506;-78
2023/11/03 11:34:06;;;;;;;7.57;2.43;;;13.00;1.00;;;;;;5137117;27;20519;-72
2023/11/03 11:36:34;;;;;;;4.30;2.73;;;13.10;1.00;;;;;;5126397;27;20565;-73
2023/11/03 11:39:03;;;;;;;6.90;2.13;;;13.00;1.00;;;;;;5128015;27;20493;-73
2023/11/03 11:41:34;;;;;;;6.13;2.60;;;13.10;1.00;;;;;;5141095;27;20502;-70
2023/11/03 11:44:06;;;;;;;3.20;1.70;;;13.20;1.00;;;;;;5133794;27;20568;-73
2023/11/03 11:46:33;;;;;;;7.77;3.63;;;13.20;1.00;;;;;;5130849;27;20494;-72
2023/11/03 11:49:06;;;;;;;3.03;1.93;;;13.20;1.00;;;;;;5130174;27;20420;-72
2023/11/03 11:51:33;;;;;;;3.17;1.70;;;13.30;1.00;;;;;;5131828;27;20451;-72
2023/11/03 11:54:02;;;;;;;3.83;2.03;;;13.30;1.00;;;;;;5128441;27;20571;-72
2023/11/03 11:56:29;;;;;;;4.60;1.70;;;13.40;1.00;;;;;;5125800;27;20535;-73
2023/11/03 11:58:58;;;;;;;3.13;1.93;;;13.40;1.00;;;;;;5107217;27;20464;-71
2023/11/03 12:01:27;;;;;;;4.90;1.87;;;13.40;1.00;;;;;;5135381;27;20476;-71
2023/11/03 12:03:55;;;;;;;2.67;1.50;;;13.50;1.00;;;;;;5151273;27;20473;-70
2023/11/03 12:06:22;;;;;;;8.30;2.63;;;13.60;1.00;;;;;;5147228;27;20898;-70
2023/11/03 12:08:49;;;;;;;8.83;5.47;;;13.50;1.00;;;;;;5132918;27;20988;-72
2023/11/03 12:11:17;;;;;;;5.33;2.30;;;13.40;1.00;;;;;;5136086;27;20466;-70
2023/11/03 12:13:47;;;;;;;5.17;2.47;;;13.40;1.00;;;;;;5149007;27;20474;-71
2023/11/03 12:16:14;;;;;;;5.60;1.90;;;13.40;1.00;;;;;;5150311;27;20888;-71
2023/11/03 12:18:43;;;;;;;4.70;2.60;;;13.30;1.00;;;;;;5142141;27;20465;-72
2023/11/03 12:21:09;;;;;;;5.00;1.63;;;13.10;1.00;;;;;;5143234;27;20528;-73
2023/11/03 12:23:39;;;;;;;3.57;1.90;;;13.00;1.00;;;;;;5150009;27;20501;-69
2023/11/03 12:26:10;;;;;;;3.70;2.00;;;13.00;1.00;;;;;;5149641;27;21022;-71
2023/11/03 12:28:38;;;;;;;5.90;2.60;;;13.00;1.00;;;;;;5131474;27;20475;-71
2023/11/03 12:31:06;;;;;;;3.03;2.00;;;13.10;1.00;;;;;;5126346;27;20521;-73
2023/11/03 12:33:36;;;;;;;6.03;2.30;;;13.10;1.00;;;;;;5129200;27;20466;-71
2023/11/03 12:36:07;;;;;;;6.23;3.20;;;13.10;1.00;;;;;;5131602;27;20459;-69
2023/11/03 12:38:43;;;;;;;4.63;2.33;;;13.10;1.00;;;;;;5128335;27;20477;-70
2023/11/03 12:41:15;;;;;;;5.80;2.77;;;13.10;1.00;;;;;;5128969;27;20573;-71
2023/11/03 12:44:00;;;;;;;5.00;2.70;;;13.00;1.00;;;;;;5129616;27;20479;-69
2023/11/03 12:46:29;;;;;;;4.47;1.83;;;13.10;1.00;;;;;;5146609;27;20453;-70
2023/11/03 12:49:07;;;;;;;2.80;2.10;;;13.10;1.00;;;;;;5149963;27;20555;-70
2023/11/03 12:51:38;;;;;;;8.00;3.97;;;13.10;1.00;;;;;;5144258;27;20459;-70
2023/11/03 12:54:06;;;;;;;3.03;1.93;;;13.30;1.00;;;;;;5153078;27;20854;-70
2023/11/03 12:56:44;;;;;;;2.10;1.90;;;13.40;1.00;;;;;;5151172;27;20548;-71